createdAt,value
2022-11-03T00:00:41.360Z,2.65
2022-11-03T00:03:09.232Z,3.28
2022-11-03T00:06:06.450Z,2.20
2022-11-03T00:08:53.400Z,2.28
2022-11-03T00:11:24.524Z,2.15
2022-11-03T00:13:57.995Z,2.67
2022-11-03T00:16:31.568Z,2.53
2022-11-03T00:19:02.897Z,2.10
2022-11-03T00:21:33.357Z,2.90
2022-11-03T00:24:12.765Z,2.75
2022-11-03T00:26:56.950Z,2.20
2022-11-03T00:29:44.854Z,2.38
2022-11-03T00:32:44.849Z,3.08
2022-11-03T00:35:34.476Z,2.55
2022-11-03T00:38:06.200Z,2.60
2022-11-03T00:40:46.635Z,2.28
2022-11-03T00:43:24.680Z,3.00
2022-11-03T00:45:57.769Z,2.53
2022-11-03T00:48:32.816Z,2.90
2022-11-03T00:51:33.584Z,2.30
2022-11-03T00:54:21.819Z,2.50
2022-11-03T00:56:54.235Z,2.70
2022-11-03T00:59:30.139Z,2.22
2022-11-03T01:02:11.648Z,2.67
2022-11-03T01:05:21.577Z,5.32
2022-11-03T01:08:14.350Z,2.55
2022-11-03T01:11:05.479Z,2.67
2022-11-03T01:13:34.400Z,2.13
2022-11-03T01:16:11.508Z,2.80
2022-11-03T01:18:42.459Z,2.10
2022-11-03T01:21:19.972Z,2.30
2022-11-03T01:23:49.518Z,2.95
2022-11-03T01:26:21.920Z,2.67
2022-11-03T01:28:51.471Z,2.60
2022-11-03T01:31:28.030Z,2.20
2022-11-03T01:33:59.120Z,2.47
2022-11-03T01:36:26.614Z,2.78
2022-11-03T01:38:58.073Z,2.88
2022-11-03T01:41:38.251Z,2.17
2022-11-03T01:44:16.561Z,2.53
2022-11-03T01:47:15.303Z,2.40
2022-11-03T01:50:05.690Z,2.78
2022-11-03T01:52:47.521Z,2.80
2022-11-03T01:55:19.796Z,3.53
2022-11-03T02:00:29.121Z,2.17
2022-11-03T02:02:56.764Z,2.33
2022-11-03T02:05:26.806Z,2.40
2022-11-03T02:10:37.579Z,2.20
2022-11-03T02:13:16.506Z,2.90
2022-11-03T02:15:48.781Z,2.22
2022-11-03T02:18:19.815Z,1.98
2022-11-03T02:20:54.010Z,2.50
2022-11-03T02:23:33.275Z,2.53
2022-11-03T02:26:01.048Z,2.22
2022-11-03T02:28:32.685Z,2.42
2022-11-03T02:31:38.593Z,2.00
2022-11-03T02:34:19.720Z,2.60
2022-11-03T02:36:51.799Z,2.88
2022-11-03T02:39:30.048Z,1.80
2022-11-03T02:41:59.200Z,2.42
2022-11-03T02:44:28.087Z,2.78
2022-11-03T02:46:59.246Z,2.65
2022-11-03T02:49:28.799Z,2.58
2022-11-03T02:52:02.715Z,2.30
2022-11-03T02:54:38.583Z,2.97
2022-11-03T02:57:13.776Z,3.22
2022-11-03T02:59:54.478Z,2.53
2022-11-03T03:02:28.385Z,2.63
2022-11-03T03:04:59.848Z,2.20
2022-11-03T03:07:34.229Z,2.15
2022-11-03T03:10:12.739Z,2.40
2022-11-03T03:12:48.536Z,2.35
2022-11-03T03:15:17.840Z,2.20
2022-11-03T03:17:50.961Z,2.13
2022-11-03T03:20:43.539Z,2.72
2022-11-03T03:23:23.226Z,2.20
2022-11-03T03:26:01.358Z,2.13
2022-11-03T03:28:41.763Z,2.20
2022-11-03T03:31:14.747Z,2.42
2022-11-03T03:33:47.620Z,1.80
2022-11-03T03:36:18.803Z,2.30
2022-11-03T03:38:55.408Z,2.20
2022-11-03T03:41:24.795Z,2.15
2022-11-03T03:43:57.970Z,2.17
2022-11-03T03:46:37.000Z,1.83
2022-11-03T03:49:05.640Z,2.42
2022-11-03T03:51:34.066Z,1.73
2022-11-03T03:54:01.324Z,1.95
2022-11-03T03:56:40.128Z,2.38
2022-11-03T03:59:07.525Z,1.90
2022-11-03T04:01:35.165Z,2.40
2022-11-03T04:04:02.114Z,2.65
2022-11-03T04:06:32.015Z,2.15
2022-11-03T04:08:59.068Z,2.25
2022-11-03T04:11:44.748Z,2.40
2022-11-03T04:14:30.560Z,2.33
2022-11-03T04:17:16.337Z,2.33
2022-11-03T04:20:01.713Z,1.98
2022-11-03T04:22:32.144Z,2.17
2022-11-03T04:25:03.188Z,2.47
2022-11-03T04:27:41.095Z,2.00
2022-11-03T04:30:16.871Z,2.58
2022-11-03T04:32:46.598Z,2.20
2022-11-03T04:35:24.784Z,2.17
2022-11-03T04:37:59.055Z,2.35
2022-11-03T04:40:29.463Z,2.58
2022-11-03T04:43:00.501Z,2.22
2022-11-03T04:45:34.154Z,3.05
2022-11-03T04:48:10.286Z,2.85
2022-11-03T04:50:37.294Z,3.67
2022-11-03T04:53:10.582Z,2.17
2022-11-03T04:55:42.986Z,2.28
2022-11-03T04:58:36.954Z,2.20
2022-11-03T05:03:43.281Z,2.65
2022-11-03T05:06:31.442Z,2.83
2022-11-03T05:09:08.010Z,2.60
2022-11-03T05:11:42.900Z,2.28
2022-11-03T05:14:22.283Z,1.75
2022-11-03T05:16:51.367Z,2.50
2022-11-03T05:19:20.878Z,1.92
2022-11-03T05:21:50.276Z,2.60
2022-11-03T05:24:20.839Z,2.42
2022-11-03T05:26:49.754Z,2.10
2022-11-03T05:29:21.492Z,2.15
2022-11-03T05:31:53.759Z,2.58
2022-11-03T05:34:27.365Z,2.17
2022-11-03T05:36:54.331Z,2.22
2022-11-03T05:39:21.451Z,2.13
2022-11-03T05:41:52.474Z,2.78
2022-11-03T05:44:37.113Z,2.28
2022-11-03T05:47:18.948Z,2.13
2022-11-03T05:49:47.239Z,2.67
2022-11-03T05:52:21.705Z,2.30
2022-11-03T05:54:53.999Z,2.97
2022-11-03T05:57:21.447Z,1.98
2022-11-03T05:59:54.111Z,2.40
2022-11-03T06:02:36.087Z,2.30
2022-11-03T06:05:18.755Z,2.47
2022-11-03T06:07:46.903Z,2.35
2022-11-03T06:10:36.811Z,2.25
2022-11-03T06:13:22.749Z,2.83
2022-11-03T06:15:56.685Z,2.45
2022-11-03T06:18:29.869Z,2.40
2022-11-03T06:21:07.963Z,3.15
2022-11-03T06:23:36.807Z,2.33
2022-11-03T06:26:05.681Z,2.00
2022-11-03T06:28:38.115Z,2.50
2022-11-03T06:31:16.637Z,2.58
2022-11-03T06:33:49.343Z,2.47
2022-11-03T06:36:22.798Z,2.85
2022-11-03T06:39:20.095Z,2.13
2022-11-03T06:41:47.417Z,2.38
2022-11-03T06:44:28.526Z,2.60
2022-11-03T06:47:15.336Z,2.45
2022-11-03T06:49:43.610Z,2.35
2022-11-03T06:52:26.148Z,2.90
2022-11-03T06:55:17.248Z,2.83
2022-11-03T06:57:48.636Z,2.63
2022-11-03T07:00:35.445Z,2.70
2022-11-03T07:03:11.492Z,3.22
2022-11-03T07:05:42.197Z,2.60
2022-11-03T07:08:19.556Z,2.53
2022-11-03T07:10:46.558Z,2.70
2022-11-03T07:13:18.114Z,2.45
2022-11-03T07:15:48.488Z,2.50
2022-11-03T07:18:28.994Z,2.28
2022-11-03T07:21:00.672Z,2.28
2022-11-03T07:23:30.635Z,2.70
2022-11-03T07:26:02.202Z,2.60
2022-11-03T07:28:39.946Z,2.28
2022-11-03T07:31:17.314Z,2.40
2022-11-03T07:33:44.491Z,2.40
2022-11-03T07:36:18.554Z,2.30
2022-11-03T07:38:52.867Z,2.65
2022-11-03T07:41:29.520Z,2.05
2022-11-03T07:44:02.590Z,2.65
2022-11-03T07:46:31.944Z,2.47
2022-11-03T07:49:02.851Z,2.55
2022-11-03T07:51:35.758Z,2.30
2022-11-03T07:54:08.642Z,1.98
2022-11-03T07:56:44.655Z,2.70
2022-11-03T07:59:19.205Z,2.67
2022-11-03T08:02:00.526Z,2.50
2022-11-03T08:04:37.899Z,2.50
2022-11-03T08:07:05.193Z,2.38
2022-11-03T08:09:32.210Z,2.22
2022-11-03T08:12:02.583Z,2.65
2022-11-03T08:14:32.131Z,2.72
2022-11-03T08:17:00.240Z,2.40
2022-11-03T08:19:30.969Z,2.63
2022-11-03T08:21:57.833Z,2.67
2022-11-03T08:24:24.819Z,2.38
2022-11-03T08:26:52.317Z,2.67
2022-11-03T08:29:19.600Z,2.60
2022-11-03T08:31:49.295Z,2.47
2022-11-03T08:34:16.515Z,2.50
2022-11-03T08:36:57.293Z,2.78
2022-11-03T08:39:28.160Z,2.33
2022-11-03T08:41:57.972Z,2.42
2022-11-03T08:44:35.284Z,2.75
2022-11-03T08:47:18.794Z,2.50
2022-11-03T08:49:56.353Z,4.32
2022-11-03T08:52:41.154Z,2.15
2022-11-03T08:55:29.101Z,2.35
2022-11-03T08:58:01.835Z,2.47
2022-11-03T09:00:37.043Z,2.17
2022-11-03T09:03:08.530Z,3.17
2022-11-03T09:05:37.867Z,2.85
2022-11-03T09:10:55.002Z,2.50
2022-11-03T09:13:25.732Z,2.00
2022-11-03T09:15:52.934Z,1.85
2022-11-03T09:18:22.790Z,2.30
2022-11-03T09:20:52.392Z,1.88
2022-11-03T09:23:22.189Z,2.00
2022-11-03T09:25:49.549Z,2.65
2022-11-03T09:28:16.466Z,2.28
2022-11-03T09:30:45.698Z,2.17
2022-11-03T09:33:12.756Z,2.25
2022-11-03T09:35:40.712Z,2.10
2022-11-03T09:38:11.342Z,1.95
2022-11-03T09:40:41.375Z,2.05
2022-11-03T09:43:13.806Z,2.42
2022-11-03T09:45:43.781Z,2.22
2022-11-03T09:48:13.269Z,1.83
2022-11-03T09:50:41.040Z,2.05
2022-11-03T09:53:13.711Z,2.13
2022-11-03T09:55:44.132Z,1.67
2022-11-03T09:58:15.104Z,2.72
2022-11-03T10:00:44.129Z,2.00
2022-11-03T10:03:19.892Z,1.95
2022-11-03T10:05:48.547Z,2.10
2022-11-03T10:08:31.430Z,2.13
2022-11-03T10:11:01.158Z,1.70
2022-11-03T10:13:40.956Z,2.00
2022-11-03T10:17:11.145Z,1.75
2022-11-03T10:19:39.385Z,1.70
2022-11-03T10:22:10.837Z,1.67
2022-11-03T10:24:48.928Z,2.35
2022-11-03T10:27:27.172Z,2.05
2022-11-03T10:30:13.039Z,1.70
2022-11-03T10:32:42.842Z,2.10
2022-11-03T10:35:32.926Z,1.77
2022-11-03T10:38:30.616Z,2.08
2022-11-03T10:41:11.883Z,1.80
2022-11-03T10:43:46.098Z,1.65
2022-11-03T10:46:37.002Z,1.65
2022-11-03T10:49:18.914Z,1.77
2022-11-03T10:51:50.600Z,1.98
2022-11-03T10:54:19.875Z,2.00
2022-11-03T10:56:53.877Z,1.73
2022-11-03T10:59:43.851Z,2.10
2022-11-03T11:02:24.371Z,1.83
2022-11-03T11:05:01.834Z,1.50
2022-11-03T11:07:32.949Z,2.20
2022-11-03T11:10:12.074Z,2.00
2022-11-03T11:13:22.148Z,2.30
2022-11-03T11:15:53.292Z,1.80
2022-11-03T11:18:45.657Z,2.15
2022-11-03T11:21:35.756Z,1.40
2022-11-03T11:24:35.926Z,1.92
2022-11-03T11:27:35.337Z,1.90
2022-11-03T11:30:25.232Z,1.80
2022-11-03T11:33:01.199Z,1.77
2022-11-03T11:35:28.355Z,1.80
2022-11-03T11:38:38.710Z,1.88
2022-11-03T11:41:05.926Z,1.50
2022-11-03T11:43:32.974Z,1.98
2022-11-03T11:46:24.672Z,2.13
2022-11-03T11:48:57.142Z,2.10
2022-11-03T11:51:25.917Z,1.80
2022-11-03T11:54:17.619Z,1.98
2022-11-03T11:56:48.911Z,1.80
2022-11-03T11:59:24.295Z,1.80
2022-11-03T12:01:57.661Z,1.60
2022-11-03T12:04:33.543Z,3.38
2022-11-03T12:07:03.776Z,1.83
2022-11-03T12:09:32.773Z,2.08
2022-11-03T12:12:09.229Z,1.80
2022-11-03T12:14:55.175Z,1.85
2022-11-03T12:17:22.986Z,2.30
2022-11-03T12:19:53.123Z,2.05
2022-11-03T12:22:27.308Z,1.60
2022-11-03T12:24:55.856Z,2.75
2022-11-03T12:27:29.321Z,1.80
2022-11-03T12:32:33.371Z,1.50
2022-11-03T12:35:06.862Z,2.15
2022-11-03T12:37:40.365Z,1.52
2022-11-03T12:40:08.054Z,1.80
2022-11-03T12:42:36.373Z,1.70
2022-11-03T12:45:04.137Z,1.58
2022-11-03T12:47:31.301Z,1.65
2022-11-03T12:50:00.348Z,1.65
2022-11-03T12:52:30.622Z,1.60
2022-11-03T12:55:00.639Z,1.70
2022-11-03T12:57:29.605Z,1.70
2022-11-03T12:59:58.813Z,2.00
2022-11-03T13:02:33.913Z,1.65
2022-11-03T13:05:01.736Z,1.63
2022-11-03T13:07:34.550Z,1.58
2022-11-03T13:10:02.052Z,1.50
2022-11-03T13:12:32.179Z,1.90
2022-11-03T13:15:00.193Z,2.45
2022-11-03T13:17:32.271Z,1.80
2022-11-03T13:22:42.599Z,1.80
2022-11-03T13:25:09.808Z,2.40
2022-11-03T13:27:38.626Z,1.73
2022-11-03T13:30:07.885Z,2.15
2022-11-03T13:32:36.891Z,2.00
2022-11-03T13:35:08.135Z,1.88
2022-11-03T13:37:38.592Z,2.30
2022-11-03T13:40:19.181Z,1.77
2022-11-03T13:42:57.329Z,1.77
2022-11-03T13:45:34.282Z,2.40
2022-11-03T13:50:56.344Z,1.90
2022-11-03T13:56:21.203Z,2.13
2022-11-03T14:01:41.948Z,1.95
2022-11-03T14:06:56.514Z,1.58
2022-11-03T14:09:23.763Z,1.60
2022-11-03T14:12:10.837Z,1.50
2022-11-03T14:14:40.113Z,1.88
2022-11-03T14:17:07.350Z,1.60
2022-11-03T14:19:39.815Z,1.58
2022-11-03T14:22:10.124Z,1.92
2022-11-03T14:24:36.984Z,1.80
2022-11-03T14:27:04.060Z,1.52
2022-11-03T14:29:33.671Z,1.90
2022-11-03T14:32:03.451Z,1.60
2022-11-03T14:34:30.368Z,1.80
2022-11-03T14:36:57.595Z,1.52
2022-11-03T14:39:24.545Z,1.90
2022-11-03T14:42:05.957Z,1.50
2022-11-03T14:44:35.161Z,1.88
2022-11-03T14:47:04.114Z,1.52
2022-11-03T14:49:32.452Z,2.03
2022-11-03T14:52:01.646Z,2.85
2022-11-03T14:54:30.584Z,1.83
2022-11-03T14:56:57.665Z,2.33
2022-11-03T14:59:25.593Z,2.15
2022-11-03T15:01:54.416Z,2.10
2022-11-03T15:04:22.499Z,2.10
2022-11-03T15:06:54.139Z,2.28
2022-11-03T15:09:21.006Z,2.20
2022-11-03T15:11:52.152Z,2.13
2022-11-03T15:14:22.166Z,1.92
2022-11-03T15:16:48.931Z,2.50
2022-11-03T15:19:16.111Z,2.30
2022-11-03T15:21:42.871Z,2.13
2022-11-03T15:26:59.890Z,2.13
2022-11-03T15:29:26.820Z,2.40
2022-11-03T15:31:53.856Z,2.20
2022-11-03T15:34:20.786Z,2.60
2022-11-03T15:36:47.892Z,2.80
2022-11-03T15:39:14.728Z,2.15
2022-11-03T15:41:41.826Z,2.40
2022-11-03T15:44:08.921Z,2.65
2022-11-03T15:46:38.211Z,2.50
2022-11-03T15:49:04.992Z,2.40
2022-11-03T15:51:31.996Z,2.30
2022-11-03T15:53:59.493Z,2.70
2022-11-03T15:56:27.511Z,3.00
2022-11-03T15:58:56.461Z,4.15
2022-11-03T16:01:24.175Z,3.90
2022-11-03T16:03:51.597Z,3.03
2022-11-03T16:06:18.518Z,2.45
2022-11-03T16:08:45.210Z,2.90
2022-11-03T16:11:12.264Z,2.55
2022-11-03T16:13:39.629Z,2.33
2022-11-03T16:16:08.424Z,2.45
2022-11-03T16:18:35.368Z,4.85
2022-11-03T16:21:02.217Z,2.60
2022-11-03T16:23:28.976Z,3.05
2022-11-03T16:25:55.983Z,2.75
2022-11-03T16:28:25.228Z,3.05
2022-11-03T16:30:54.703Z,2.75
2022-11-03T16:33:22.327Z,2.95
2022-11-03T16:35:59.627Z,2.85
2022-11-03T16:38:30.277Z,2.95
2022-11-03T16:41:08.324Z,3.20
2022-11-03T16:43:37.748Z,2.92
2022-11-03T16:46:07.048Z,2.72
2022-11-03T16:48:36.629Z,2.97
2022-11-03T16:51:03.974Z,2.90
2022-11-03T16:53:31.463Z,4.13
2022-11-03T16:55:58.929Z,2.83
2022-11-03T16:58:25.946Z,4.32
2022-11-03T17:00:53.122Z,3.10
2022-11-03T17:03:22.700Z,3.17
2022-11-03T17:08:52.344Z,3.10
2022-11-03T17:11:40.469Z,3.58
2022-11-03T17:14:19.114Z,3.13
2022-11-03T17:16:47.501Z,3.03
2022-11-03T17:19:15.679Z,3.70
2022-11-03T17:21:44.853Z,3.90
2022-11-03T17:24:14.067Z,3.53
2022-11-03T17:26:57.751Z,3.35
2022-11-03T17:29:38.906Z,3.55
2022-11-03T17:32:25.265Z,4.05
2022-11-03T17:34:56.074Z,3.78
2022-11-03T17:37:25.538Z,3.90
2022-11-03T17:40:01.418Z,4.05
2022-11-03T17:42:28.919Z,3.83
2022-11-03T17:44:59.598Z,3.80
2022-11-03T17:47:27.129Z,4.00
2022-11-03T17:49:54.211Z,3.83
2022-11-03T17:52:28.355Z,4.15
2022-11-03T17:54:59.023Z,3.95
2022-11-03T17:57:27.068Z,15.63
2022-11-03T17:59:59.001Z,8.02
2022-11-03T18:02:31.934Z,5.80
2022-11-03T18:05:38.278Z,7.00
2022-11-03T18:08:13.277Z,8.32
2022-11-03T18:10:43.474Z,5.75
2022-11-03T18:13:30.024Z,6.05
2022-11-03T18:16:19.362Z,7.10
2022-11-03T18:18:51.517Z,8.88
2022-11-03T18:21:24.996Z,5.53
2022-11-03T18:26:55.709Z,4.72
2022-11-03T18:29:23.677Z,5.45
2022-11-03T18:31:51.020Z,7.95
2022-11-03T18:34:25.838Z,5.93
2022-11-03T18:36:55.650Z,7.00
2022-11-03T18:39:32.354Z,4.47
2022-11-03T18:42:05.418Z,4.55
2022-11-03T18:44:34.607Z,4.70
2022-11-03T18:47:02.684Z,5.38
2022-11-03T18:49:33.214Z,4.68
2022-11-03T18:52:15.861Z,5.55
2022-11-03T18:54:50.399Z,4.93
2022-11-03T18:57:22.909Z,4.50
2022-11-03T18:59:50.182Z,5.03
2022-11-03T19:02:30.661Z,5.38
2022-11-03T19:04:58.013Z,4.93
2022-11-03T19:07:30.436Z,4.93
2022-11-03T19:09:57.836Z,5.90
2022-11-03T19:12:24.797Z,5.05
2022-11-03T19:14:52.110Z,4.85
2022-11-03T19:17:24.814Z,5.75
2022-11-03T19:19:53.033Z,4.65
2022-11-03T19:22:23.316Z,14.60
2022-11-03T19:24:50.185Z,11.82
2022-11-03T19:27:26.593Z,39.80
2022-11-03T19:29:54.735Z,10.68
2022-11-03T19:32:28.132Z,14.02
2022-11-03T19:35:01.687Z,9.48
2022-11-03T19:37:35.407Z,7.13
2022-11-03T19:40:12.048Z,7.78
2022-11-03T19:42:39.715Z,6.80
2022-11-03T19:45:14.662Z,7.95
2022-11-03T19:48:10.748Z,7.95
2022-11-03T19:50:38.826Z,7.00
2022-11-03T19:53:16.264Z,8.23
2022-11-03T19:55:43.244Z,9.90
2022-11-03T19:58:16.449Z,7.47
2022-11-03T20:00:46.367Z,6.85
2022-11-03T20:03:14.722Z,7.97
2022-11-03T20:05:46.602Z,9.35
2022-11-03T20:08:19.165Z,7.00
2022-11-03T20:10:49.285Z,8.20
2022-11-03T20:13:19.278Z,7.07
2022-11-03T20:15:46.909Z,5.80
2022-11-03T20:18:14.552Z,6.40
2022-11-03T20:20:45.077Z,6.47
2022-11-03T20:23:23.496Z,7.18
2022-11-03T20:25:50.568Z,7.32
2022-11-03T20:28:23.309Z,6.93
2022-11-03T20:30:55.174Z,9.20
2022-11-03T20:33:25.023Z,9.00
2022-11-03T20:35:53.912Z,8.23
2022-11-03T20:38:22.883Z,8.35
2022-11-03T20:40:55.700Z,7.97
2022-11-03T20:43:44.368Z,9.75
2022-11-03T20:46:32.764Z,9.00
2022-11-03T20:49:00.513Z,9.23
2022-11-03T20:51:32.117Z,11.15
2022-11-03T20:53:59.808Z,6.75
2022-11-03T20:56:28.734Z,5.97
2022-11-03T20:58:57.213Z,5.05
2022-11-03T21:01:43.527Z,5.65
2022-11-03T21:04:17.250Z,5.35
2022-11-03T21:06:46.583Z,5.70
2022-11-03T21:09:15.724Z,4.50
2022-11-03T21:11:45.112Z,4.75
2022-11-03T21:14:22.152Z,4.50
2022-11-03T21:17:07.380Z,4.10
2022-11-03T21:19:57.707Z,4.43
2022-11-03T21:22:57.674Z,4.70
2022-11-03T21:25:25.443Z,4.63
2022-11-03T21:27:55.335Z,5.47
2022-11-03T21:30:24.981Z,5.10
2022-11-03T21:32:51.807Z,6.65
2022-11-03T21:35:20.960Z,7.20
2022-11-03T21:37:52.200Z,7.13
2022-11-03T21:40:19.423Z,8.32
2022-11-03T21:43:06.053Z,8.20
2022-11-03T21:45:37.468Z,8.13
2022-11-03T21:48:27.176Z,5.47
2022-11-03T21:50:54.349Z,4.60
2022-11-03T21:53:21.356Z,3.90
2022-11-03T21:55:49.642Z,3.55
2022-11-03T21:58:16.671Z,3.95
2022-11-03T22:00:47.655Z,3.78
2022-11-03T22:03:14.951Z,3.80
2022-11-03T22:05:42.270Z,4.10
2022-11-03T22:08:11.200Z,4.57
2022-11-03T22:10:40.423Z,5.07
2022-11-03T22:13:07.755Z,5.55
2022-11-03T22:15:53.589Z,7.55
2022-11-03T22:18:20.478Z,7.88
2022-11-03T22:21:07.019Z,8.52
2022-11-03T22:23:52.591Z,8.02
2022-11-03T22:26:38.482Z,8.95
2022-11-03T22:29:23.942Z,15.32
2022-11-03T22:31:50.897Z,8.50
2022-11-03T22:34:39.857Z,7.53
2022-11-03T22:37:09.259Z,7.82
2022-11-03T22:39:54.701Z,7.72
2022-11-03T22:42:40.971Z,9.48
2022-11-03T22:45:28.883Z,11.02
2022-11-03T22:47:57.617Z,11.15
2022-11-03T22:50:26.813Z,12.15
2022-11-03T22:52:53.820Z,11.75
2022-11-03T22:55:24.521Z,10.88
2022-11-03T22:57:54.458Z,8.82
2022-11-03T23:00:22.997Z,8.93
2022-11-03T23:02:53.957Z,8.35
2022-11-03T23:05:21.103Z,9.35
2022-11-03T23:07:50.106Z,8.88
2022-11-03T23:10:18.382Z,7.68
2022-11-03T23:12:45.433Z,5.65
2022-11-03T23:15:31.278Z,5.53
2022-11-03T23:18:21.412Z,4.43
2022-11-03T23:21:07.021Z,2.13
2022-11-03T23:24:00.420Z,2.13
2022-11-03T23:26:30.874Z,1.67
2022-11-03T23:29:03.310Z,1.50
2022-11-03T23:31:33.912Z,1.40
2022-11-03T23:34:01.250Z,1.42
2022-11-03T23:36:31.198Z,1.10
2022-11-03T23:38:59.916Z,1.13
2022-11-03T23:41:28.203Z,0.90
2022-11-03T23:43:55.977Z,1.08
2022-11-03T23:46:44.010Z,1.48
2022-11-03T23:49:11.375Z,1.50
2022-11-03T23:51:39.188Z,2.17
2022-11-03T23:54:10.847Z,2.08
2022-11-03T23:56:59.952Z,3.40
2022-11-03T23:59:29.556Z,4.95
